createdAt,value
2023-02-07T00:01:07.444Z,87.85
2023-02-07T00:04:10.931Z,88.12
2023-02-07T00:07:14.150Z,88.70
2023-02-07T00:10:17.629Z,88.95
2023-02-07T00:13:20.726Z,89.16
2023-02-07T00:16:26.351Z,89.58
2023-02-07T00:19:29.330Z,89.16
2023-02-07T00:22:32.829Z,88.76
2023-02-07T00:25:36.374Z,88.66
2023-02-07T00:28:40.260Z,88.61
2023-02-07T00:31:43.811Z,88.38
2023-02-07T00:34:50.782Z,88.65
2023-02-07T00:37:55.715Z,89.21
2023-02-07T00:41:01.678Z,89.44
2023-02-07T00:44:06.187Z,90.66
2023-02-07T00:47:09.538Z,90.36
2023-02-07T00:50:14.606Z,89.97
2023-02-07T00:53:18.976Z,90.00
2023-02-07T00:56:24.745Z,90.14
2023-02-07T00:59:28.272Z,89.92
2023-02-07T01:02:31.690Z,91.36
2023-02-07T01:05:35.657Z,91.69
2023-02-07T01:08:39.749Z,91.37
2023-02-07T01:11:43.326Z,91.21
2023-02-07T01:14:46.634Z,91.18
2023-02-07T01:17:50.387Z,91.16
2023-02-07T01:20:53.626Z,91.18
2023-02-07T01:23:57.412Z,91.24
2023-02-07T01:27:00.635Z,91.41
2023-02-07T01:30:05.349Z,91.26
2023-02-07T01:33:08.907Z,91.02
2023-02-07T01:36:14.940Z,91.33
2023-02-07T01:39:18.178Z,91.52
2023-02-07T01:42:25.220Z,91.41
2023-02-07T01:45:35.767Z,91.57
2023-02-07T01:48:39.484Z,91.48
2023-02-07T01:51:46.986Z,91.46
2023-02-07T01:54:55.145Z,91.67
2023-02-07T01:57:59.185Z,91.65
2023-02-07T02:01:05.811Z,91.72
2023-02-07T02:04:09.161Z,91.79
2023-02-07T02:07:13.974Z,92.11
2023-02-07T02:10:23.653Z,92.55
2023-02-07T02:13:29.707Z,92.27
2023-02-07T02:17:00.346Z,92.26
2023-02-07T02:20:29.263Z,92.67
2023-02-07T02:23:43.753Z,92.54
2023-02-07T02:27:18.239Z,92.55
2023-02-07T02:30:53.028Z,92.33
2023-02-07T02:34:22.900Z,92.43
2023-02-07T02:37:40.831Z,92.41
2023-02-07T02:41:17.300Z,92.23
2023-02-07T02:44:46.384Z,92.18
2023-02-07T02:47:52.155Z,92.27
2023-02-07T02:50:56.809Z,92.36
2023-02-07T02:54:02.613Z,92.36
2023-02-07T02:57:58.025Z,92.74
2023-02-07T03:01:36.041Z,93.44
2023-02-07T03:05:24.560Z,93.01
2023-02-07T03:08:44.226Z,93.13
2023-02-07T03:12:19.417Z,93.35
2023-02-07T03:15:35.614Z,93.54
2023-02-07T03:19:06.531Z,93.67
2023-02-07T03:22:13.456Z,93.89
2023-02-07T03:25:20.962Z,93.89
2023-02-07T03:28:26.669Z,93.71
2023-02-07T03:31:30.786Z,93.65
2023-02-07T03:35:00.884Z,93.82
2023-02-07T03:38:05.197Z,94.10
2023-02-07T03:41:16.853Z,94.11
2023-02-07T03:44:22.343Z,93.85
2023-02-07T03:47:26.766Z,93.85
2023-02-07T03:50:29.946Z,93.99
2023-02-07T03:53:33.588Z,93.68
2023-02-07T03:56:37.651Z,93.68
2023-02-07T03:59:41.048Z,93.54
2023-02-07T04:02:44.257Z,93.30
2023-02-07T04:05:49.662Z,93.33
2023-02-07T04:08:52.871Z,93.51
2023-02-07T04:11:56.388Z,93.38
2023-02-07T04:15:01.242Z,93.11
2023-02-07T04:18:05.949Z,92.93
2023-02-07T04:21:10.962Z,92.88
2023-02-07T04:24:14.624Z,93.93
2023-02-07T04:27:18.085Z,93.72
2023-02-07T04:30:21.717Z,93.19
2023-02-07T04:33:24.826Z,92.93
2023-02-07T04:36:29.986Z,92.95
2023-02-07T04:39:33.293Z,92.93
2023-02-07T04:42:36.719Z,92.81
2023-02-07T04:45:40.144Z,93.00
2023-02-07T04:48:43.842Z,93.43
2023-02-07T04:51:47.030Z,93.71
2023-02-07T04:54:50.477Z,93.94
2023-02-07T04:57:53.637Z,94.43
2023-02-07T05:00:57.396Z,95.07
2023-02-07T05:04:00.560Z,95.13
2023-02-07T05:07:04.939Z,94.49
2023-02-07T05:10:09.865Z,94.32
2023-02-07T05:13:13.469Z,94.36
2023-02-07T05:16:17.216Z,94.24
2023-02-07T05:19:20.833Z,94.12
2023-02-07T05:22:24.403Z,94.05
2023-02-07T05:25:27.989Z,94.06
2023-02-07T05:28:31.191Z,93.91
2023-02-07T05:31:53.153Z,94.00
2023-02-07T05:35:11.850Z,93.92
2023-02-07T05:38:17.993Z,93.82
2023-02-07T05:41:21.106Z,93.93
2023-02-07T05:44:24.458Z,93.96
2023-02-07T05:47:27.752Z,94.01
2023-02-07T05:50:31.688Z,93.74
2023-02-07T05:53:39.616Z,93.71
2023-02-07T05:56:42.977Z,93.82
2023-02-07T05:59:46.063Z,93.64
2023-02-07T06:02:49.910Z,93.76
2023-02-07T06:05:53.411Z,95.00
2023-02-07T06:08:58.016Z,94.95
2023-02-07T06:12:03.128Z,95.71
2023-02-07T06:15:11.031Z,95.88
2023-02-07T06:18:15.482Z,96.56
2023-02-07T06:21:20.343Z,96.91
2023-02-07T06:24:23.863Z,96.72
2023-02-07T06:27:28.089Z,96.47
2023-02-07T06:30:31.730Z,95.91
2023-02-07T06:33:35.213Z,95.58
2023-02-07T06:36:39.059Z,95.35
2023-02-07T06:39:42.161Z,94.49
2023-02-07T06:42:45.954Z,94.47
2023-02-07T06:45:49.224Z,94.24
2023-02-07T06:48:52.829Z,93.85
2023-02-07T06:51:56.152Z,93.70
2023-02-07T06:54:59.606Z,93.56
2023-02-07T06:58:03.003Z,93.65
2023-02-07T07:01:06.810Z,94.04
2023-02-07T07:04:10.073Z,94.07
2023-02-07T07:07:14.062Z,94.26
2023-02-07T07:10:17.465Z,93.65
2023-02-07T07:13:21.277Z,93.24
2023-02-07T07:16:24.119Z,92.70
2023-02-07T07:19:28.247Z,92.78
2023-02-07T07:22:31.625Z,93.93
2023-02-07T07:25:35.368Z,93.34
2023-02-07T07:28:39.202Z,92.99
2023-02-07T07:31:46.662Z,94.29
2023-02-07T07:34:50.499Z,93.89
2023-02-07T07:37:54.246Z,93.44
2023-02-07T07:40:57.702Z,92.46
2023-02-07T07:44:01.066Z,92.05
2023-02-07T07:47:04.553Z,91.60
2023-02-07T07:50:08.634Z,91.80
2023-02-07T07:53:11.770Z,91.72
2023-02-07T07:56:15.082Z,90.53
2023-02-07T07:59:23.860Z,90.34
2023-02-07T08:02:28.388Z,90.42
2023-02-07T08:05:32.048Z,89.32
2023-02-07T08:08:35.145Z,88.96
2023-02-07T08:11:47.128Z,88.63
2023-02-07T08:14:50.202Z,88.77
2023-02-07T08:17:53.711Z,88.23
2023-02-07T08:20:57.007Z,88.10
2023-02-07T08:24:00.685Z,89.06
2023-02-07T08:27:04.132Z,88.09
2023-02-07T08:30:09.451Z,88.34
2023-02-07T08:33:12.771Z,88.18
2023-02-07T08:36:16.222Z,87.85
2023-02-07T08:39:21.022Z,87.90
2023-02-07T08:42:25.765Z,86.52
2023-02-07T08:45:29.088Z,86.18
2023-02-07T08:48:33.319Z,87.52
2023-02-07T08:51:36.573Z,86.55
2023-02-07T08:54:40.316Z,86.01
2023-02-07T08:57:44.950Z,86.59
2023-02-07T09:00:48.481Z,85.10
2023-02-07T09:03:56.796Z,86.51
2023-02-07T09:07:01.585Z,86.24
2023-02-07T09:10:07.585Z,85.18
2023-02-07T09:13:12.786Z,87.41
2023-02-07T09:16:16.145Z,88.05
2023-02-07T09:19:20.943Z,88.30
2023-02-07T09:22:24.028Z,87.81
2023-02-07T09:25:27.466Z,86.24
2023-02-07T09:28:30.916Z,86.03
2023-02-07T09:31:34.960Z,86.45
2023-02-07T09:34:39.287Z,85.88
2023-02-07T09:37:49.414Z,84.05
2023-02-07T09:40:54.223Z,82.81
2023-02-07T09:44:15.961Z,82.09
2023-02-07T09:47:22.312Z,81.59
2023-02-07T09:50:37.982Z,82.71
2023-02-07T09:53:45.301Z,83.55
2023-02-07T09:56:48.827Z,83.14
2023-02-07T09:59:55.941Z,80.77
2023-02-07T10:03:09.606Z,81.16
2023-02-07T10:06:20.694Z,81.79
2023-02-07T10:09:29.214Z,81.85
2023-02-07T10:13:02.279Z,80.95
2023-02-07T10:16:08.188Z,81.13
2023-02-07T10:19:23.719Z,80.45
2023-02-07T10:22:31.754Z,80.44
2023-02-07T10:26:15.671Z,79.72
2023-02-07T10:29:37.723Z,80.88
2023-02-07T10:32:43.564Z,78.40
2023-02-07T10:35:47.271Z,76.89
2023-02-07T10:39:28.248Z,76.58
2023-02-07T10:42:33.804Z,75.24
2023-02-07T10:45:40.582Z,74.64
2023-02-07T10:48:43.948Z,73.66
2023-02-07T10:51:47.865Z,73.74
2023-02-07T10:54:54.697Z,74.40
2023-02-07T10:58:06.426Z,74.72
2023-02-07T11:01:20.857Z,74.65
2023-02-07T11:04:44.455Z,74.05
2023-02-07T11:08:27.294Z,74.30
2023-02-07T11:11:33.021Z,73.71
2023-02-07T11:14:36.405Z,74.01
2023-02-07T11:17:48.365Z,72.77
2023-02-07T11:20:53.424Z,74.92
2023-02-07T11:24:05.228Z,74.15
2023-02-07T11:27:11.204Z,72.45
2023-02-07T11:30:21.692Z,71.84
2023-02-07T11:33:28.292Z,69.94
2023-02-07T11:36:34.002Z,70.08
2023-02-07T11:39:37.109Z,70.19
2023-02-07T11:42:41.561Z,67.41
2023-02-07T11:45:50.729Z,67.73
2023-02-07T11:48:57.778Z,66.82
2023-02-07T11:52:02.263Z,67.76
2023-02-07T11:55:09.004Z,64.94
2023-02-07T11:58:21.482Z,61.46
2023-02-07T12:01:29.181Z,60.46
2023-02-07T12:04:38.576Z,58.10
2023-02-07T12:07:47.085Z,57.06
2023-02-07T12:10:55.126Z,56.22
2023-02-07T12:14:09.777Z,55.46
2023-02-07T12:17:17.957Z,52.60
2023-02-07T12:20:25.464Z,52.00
2023-02-07T12:23:54.603Z,52.82
2023-02-07T12:26:57.683Z,51.57
2023-02-07T12:30:18.367Z,50.03
2023-02-07T12:33:23.042Z,48.73
2023-02-07T12:36:36.701Z,49.84
2023-02-07T12:39:44.708Z,47.76
2023-02-07T12:43:13.628Z,48.12
2023-02-07T12:46:26.157Z,47.45
2023-02-07T12:49:35.393Z,44.88
2023-02-07T12:52:53.664Z,42.29
2023-02-07T12:56:02.648Z,42.37
2023-02-07T12:59:27.941Z,42.79
2023-02-07T13:03:08.858Z,42.71
2023-02-07T13:06:17.811Z,40.64
2023-02-07T13:09:36.781Z,40.19
2023-02-07T13:12:52.034Z,41.50
2023-02-07T13:16:00.650Z,38.29
2023-02-07T13:19:16.088Z,39.99
2023-02-07T13:22:28.922Z,41.59
2023-02-07T13:25:38.646Z,38.56
2023-02-07T13:28:57.615Z,36.29
2023-02-07T13:32:03.409Z,32.00
2023-02-07T13:35:13.033Z,38.06
2023-02-07T13:38:19.051Z,36.25
2023-02-07T13:41:34.603Z,34.43
2023-02-07T13:44:49.489Z,37.01
2023-02-07T13:48:24.788Z,35.27
2023-02-07T13:51:44.487Z,37.72
2023-02-07T13:55:06.183Z,34.54
2023-02-07T13:58:54.984Z,35.36
2023-02-07T14:01:59.792Z,33.72
2023-02-07T14:05:09.585Z,34.90
2023-02-07T14:08:16.400Z,36.43
2023-02-07T14:11:50.620Z,36.08
2023-02-07T14:15:02.617Z,35.99
2023-02-07T14:18:29.378Z,36.33
2023-02-07T14:21:40.365Z,37.10
2023-02-07T14:25:03.720Z,37.51
2023-02-07T14:28:07.673Z,37.37
2023-02-07T14:31:25.974Z,39.37
2023-02-07T14:34:59.630Z,41.06
2023-02-07T14:38:17.968Z,36.93
2023-02-07T14:41:29.281Z,40.85
2023-02-07T14:44:36.201Z,38.42
2023-02-07T14:47:39.428Z,39.67
2023-02-07T14:50:52.177Z,39.66
2023-02-07T14:54:16.807Z,38.28
2023-02-07T14:57:44.006Z,38.30
2023-02-07T15:00:50.660Z,34.98
2023-02-07T15:04:02.501Z,37.86
2023-02-07T15:07:12.715Z,36.96
2023-02-07T15:10:17.571Z,39.90
2023-02-07T15:13:44.430Z,39.27
2023-02-07T15:16:48.558Z,40.60
2023-02-07T15:19:56.346Z,40.83
2023-02-07T15:23:02.137Z,45.67
2023-02-07T15:26:06.126Z,46.70
2023-02-07T15:29:26.182Z,45.63
2023-02-07T15:32:33.743Z,48.11
2023-02-07T15:35:42.144Z,50.27
2023-02-07T15:38:46.260Z,49.84
2023-02-07T15:41:51.962Z,54.47
2023-02-07T15:44:56.129Z,54.03
2023-02-07T15:48:14.634Z,55.90
2023-02-07T15:51:25.558Z,56.50
2023-02-07T15:54:29.283Z,58.46
2023-02-07T15:57:37.344Z,59.87
2023-02-07T16:00:41.764Z,61.46
2023-02-07T16:03:46.807Z,63.18
2023-02-07T16:07:02.916Z,64.34
2023-02-07T16:10:38.085Z,64.70
2023-02-07T16:14:01.265Z,65.63
2023-02-07T16:17:04.845Z,66.03
2023-02-07T16:20:13.794Z,66.81
2023-02-07T16:23:17.780Z,67.06
2023-02-07T16:26:25.561Z,67.28
2023-02-07T16:29:29.517Z,67.97
2023-02-07T16:32:34.564Z,68.09
2023-02-07T16:35:37.982Z,68.30
2023-02-07T16:38:40.978Z,68.49
2023-02-07T16:41:47.235Z,69.00
2023-02-07T16:44:50.613Z,69.75
2023-02-07T16:47:55.522Z,70.27
2023-02-07T16:51:01.546Z,70.55
2023-02-07T16:54:05.740Z,70.64
2023-02-07T16:57:10.622Z,70.85
2023-02-07T17:00:17.224Z,71.21
2023-02-07T17:03:22.228Z,71.71
2023-02-07T17:06:28.287Z,72.38
2023-02-07T17:09:31.501Z,72.70
2023-02-07T17:12:35.249Z,72.62
2023-02-07T17:15:38.562Z,73.28
2023-02-07T17:18:42.448Z,73.51
2023-02-07T17:21:48.156Z,73.82
2023-02-07T17:24:54.163Z,73.69
2023-02-07T17:27:58.364Z,74.28
2023-02-07T17:31:01.943Z,74.68
2023-02-07T17:34:06.192Z,74.62
2023-02-07T17:37:13.535Z,74.72
2023-02-07T17:40:23.206Z,74.78
2023-02-07T17:43:27.889Z,75.18
2023-02-07T17:46:35.711Z,75.06
2023-02-07T17:49:47.163Z,75.66
2023-02-07T17:52:53.471Z,75.76
2023-02-07T17:55:59.054Z,76.26
2023-02-07T17:59:06.405Z,76.63
2023-02-07T18:02:11.388Z,77.03
2023-02-07T18:05:18.835Z,77.80
2023-02-07T18:08:24.496Z,78.03
2023-02-07T18:11:28.943Z,78.73
2023-02-07T18:14:33.301Z,79.48
2023-02-07T18:17:39.790Z,79.50
2023-02-07T18:20:45.765Z,79.38
2023-02-07T18:23:54.508Z,79.70
2023-02-07T18:26:58.991Z,79.97
2023-02-07T18:30:06.995Z,80.29
2023-02-07T18:33:14.331Z,80.25
2023-02-07T18:36:23.748Z,80.84
2023-02-07T18:39:30.031Z,80.56
2023-02-07T18:42:35.233Z,80.96
2023-02-07T18:45:43.715Z,80.82
2023-02-07T18:48:53.124Z,80.66
2023-02-07T18:51:58.558Z,80.80
2023-02-07T18:55:04.317Z,80.90
2023-02-07T18:58:08.931Z,80.89
2023-02-07T19:01:19.315Z,81.34
2023-02-07T19:04:25.553Z,81.17
2023-02-07T19:07:31.533Z,81.41
2023-02-07T19:10:35.670Z,81.94
2023-02-07T19:13:42.316Z,81.79
2023-02-07T19:16:50.138Z,81.75
2023-02-07T19:19:54.701Z,81.58
2023-02-07T19:22:59.243Z,81.72
2023-02-07T19:26:06.339Z,82.02
2023-02-07T19:29:12.224Z,82.62
2023-02-07T19:32:17.613Z,82.42
2023-02-07T19:35:22.789Z,82.94
2023-02-07T19:38:27.931Z,83.14
2023-02-07T19:41:33.536Z,83.17
2023-02-07T19:44:40.382Z,83.60
2023-02-07T19:47:48.136Z,83.58
2023-02-07T19:51:06.883Z,83.46
2023-02-07T19:54:11.589Z,83.36
2023-02-07T19:57:17.944Z,83.46
2023-02-07T20:00:24.311Z,83.68
2023-02-07T20:03:33.376Z,83.43
2023-02-07T20:06:39.358Z,83.12
2023-02-07T20:09:59.620Z,83.06
2023-02-07T20:13:07.010Z,83.01
2023-02-07T20:16:18.872Z,83.07
2023-02-07T20:19:25.151Z,83.26
2023-02-07T20:22:35.646Z,83.52
2023-02-07T20:25:40.968Z,83.65
2023-02-07T20:28:50.724Z,84.09
2023-02-07T20:31:57.906Z,84.08
2023-02-07T20:35:03.583Z,84.28
2023-02-07T20:38:09.745Z,84.64
2023-02-07T20:41:29.725Z,85.05
2023-02-07T20:44:35.611Z,85.18
2023-02-07T20:47:42.888Z,85.25
2023-02-07T20:50:49.228Z,85.06
2023-02-07T20:53:57.636Z,85.21
2023-02-07T20:57:02.840Z,85.68
2023-02-07T21:00:10.926Z,85.87
2023-02-07T21:03:16.124Z,86.05
2023-02-07T21:06:24.662Z,86.35
2023-02-07T21:09:29.845Z,86.17
2023-02-07T21:12:34.818Z,86.35
2023-02-07T21:15:40.064Z,86.19
2023-02-07T21:18:47.962Z,86.37
2023-02-07T21:21:52.055Z,86.60
2023-02-07T21:24:56.312Z,86.81
2023-02-07T21:28:00.426Z,86.95
2023-02-07T21:31:10.223Z,87.49
2023-02-07T21:34:16.175Z,88.05
2023-02-07T21:37:21.201Z,88.10
2023-02-07T21:40:26.525Z,88.78
2023-02-07T21:43:30.416Z,89.03
2023-02-07T21:46:39.594Z,88.69
2023-02-07T21:49:55.740Z,88.59
2023-02-07T21:53:04.423Z,88.72
2023-02-07T21:56:10.924Z,88.79
2023-02-07T21:59:16.415Z,89.07
2023-02-07T22:02:20.590Z,89.30
2023-02-07T22:05:24.506Z,89.41
2023-02-07T22:08:27.579Z,89.88
2023-02-07T22:11:33.383Z,91.81
2023-02-07T22:14:36.249Z,92.09
2023-02-07T22:17:39.505Z,91.44
2023-02-07T22:20:42.791Z,90.99
2023-02-07T22:23:46.484Z,90.80
2023-02-07T22:26:49.684Z,90.45
2023-02-07T22:29:53.269Z,90.08
2023-02-07T22:32:56.460Z,90.56
2023-02-07T22:36:00.127Z,90.51
2023-02-07T22:39:05.423Z,90.57
2023-02-07T22:42:08.873Z,90.38
2023-02-07T22:45:12.105Z,90.17
2023-02-07T22:48:16.953Z,90.15
2023-02-07T22:51:21.145Z,90.05
2023-02-07T22:54:24.598Z,89.83
2023-02-07T22:57:27.659Z,90.01
2023-02-07T23:00:31.141Z,90.05
2023-02-07T23:03:34.971Z,90.20
2023-02-07T23:06:38.380Z,90.67
2023-02-07T23:09:41.597Z,91.21
2023-02-07T23:12:45.122Z,91.20
2023-02-07T23:15:48.768Z,91.25
2023-02-07T23:18:54.003Z,91.07
2023-02-07T23:22:00.636Z,91.18
2023-02-07T23:25:05.538Z,91.09
2023-02-07T23:28:08.745Z,91.01
2023-02-07T23:31:14.172Z,92.17
2023-02-07T23:34:17.645Z,92.67
2023-02-07T23:37:22.528Z,92.82
2023-02-07T23:40:26.000Z,92.50
2023-02-07T23:43:31.088Z,92.38
2023-02-07T23:46:35.752Z,92.73
2023-02-07T23:49:39.378Z,93.16
2023-02-07T23:52:42.851Z,93.59
2023-02-07T23:55:46.423Z,93.47
2023-02-07T23:58:51.028Z,93.66
